sensor_id;sensor_type;location;lat;lon;timestamp;P1;durP1;ratioP1;P2;durP2;ratioP2
59830;SDS011;45711;50.108;13.712;2023-06-22T00:01:43;11.45;;;7.93;;
59830;SDS011;45711;50.108;13.712;2023-06-22T00:05:00;11.52;;;8.38;;
59830;SDS011;45711;50.108;13.712;2023-06-22T00:07:01;14.07;;;7.88;;
59830;SDS011;45711;50.108;13.712;2023-06-22T00:09:34;22.48;;;8.27;;
59830;SDS011;45711;50.108;13.712;2023-06-22T00:12:11;11.75;;;7.85;;
59830;SDS011;45711;50.108;13.712;2023-06-22T00:14:37;15.68;;;7.88;;
59830;SDS011;45711;50.108;13.712;2023-06-22T00:17:06;10.98;;;7.40;;
59830;SDS011;45711;50.108;13.712;2023-06-22T00:19:37;15.02;;;7.13;;
59830;SDS011;45711;50.108;13.712;2023-06-22T00:22:15;26.05;;;7.97;;
59830;SDS011;45711;50.108;13.712;2023-06-22T00:24:45;16.58;;;7.68;;
59830;SDS011;45711;50.108;13.712;2023-06-22T00:27:11;18.48;;;7.25;;
59830;SDS011;45711;50.108;13.712;2023-06-22T00:29:39;10.45;;;7.78;;
59830;SDS011;45711;50.108;13.712;2023-06-22T00:32:24;12.82;;;7.60;;
59830;SDS011;45711;50.108;13.712;2023-06-22T00:34:55;9.90;;;7.85;;
59830;SDS011;45711;50.108;13.712;2023-06-22T00:37:25;15.60;;;7.22;;
59830;SDS011;45711;50.108;13.712;2023-06-22T00:39:53;13.02;;;7.68;;
59830;SDS011;45711;50.108;13.712;2023-06-22T00:42:27;10.32;;;8.13;;
59830;SDS011;45711;50.108;13.712;2023-06-22T00:44:53;13.10;;;7.90;;
59830;SDS011;45711;50.108;13.712;2023-06-22T00:47:26;12.52;;;8.07;;
59830;SDS011;45711;50.108;13.712;2023-06-22T00:50:15;20.20;;;7.43;;
59830;SDS011;45711;50.108;13.712;2023-06-22T00:52:48;18.65;;;7.40;;
59830;SDS011;45711;50.108;13.712;2023-06-22T00:55:27;20.23;;;7.07;;
59830;SDS011;45711;50.108;13.712;2023-06-22T00:58:19;16.42;;;7.25;;
59830;SDS011;45711;50.108;13.712;2023-06-22T01:00:53;12.32;;;7.50;;
59830;SDS011;45711;50.108;13.712;2023-06-22T01:03:22;11.32;;;7.68;;
59830;SDS011;45711;50.108;13.712;2023-06-22T01:06:04;14.25;;;7.95;;
59830;SDS011;45711;50.108;13.712;2023-06-22T01:08:42;9.02;;;7.10;;
59830;SDS011;45711;50.108;13.712;2023-06-22T01:11:22;11.73;;;7.05;;
59830;SDS011;45711;50.108;13.712;2023-06-22T01:14:00;11.07;;;6.93;;
59830;SDS011;45711;50.108;13.712;2023-06-22T01:16:38;11.98;;;7.57;;
59830;SDS011;45711;50.108;13.712;2023-06-22T01:19:28;20.88;;;7.35;;
59830;SDS011;45711;50.108;13.712;2023-06-22T01:22:03;24.08;;;7.57;;
59830;SDS011;45711;50.108;13.712;2023-06-22T01:24:55;28.00;;;7.53;;
59830;SDS011;45711;50.108;13.712;2023-06-22T01:27:33;31.60;;;7.93;;
59830;SDS011;45711;50.108;13.712;2023-06-22T01:30:16;30.98;;;7.97;;
59830;SDS011;45711;50.108;13.712;2023-06-22T01:32:50;23.60;;;7.00;;
59830;SDS011;45711;50.108;13.712;2023-06-22T01:35:25;15.82;;;7.30;;
59830;SDS011;45711;50.108;13.712;2023-06-22T01:37:56;11.63;;;6.70;;
59830;SDS011;45711;50.108;13.712;2023-06-22T01:40:51;16.05;;;7.88;;
59830;SDS011;45711;50.108;13.712;2023-06-22T01:44:01;14.80;;;7.35;;
59830;SDS011;45711;50.108;13.712;2023-06-22T01:46:43;18.23;;;7.65;;
59830;SDS011;45711;50.108;13.712;2023-06-22T01:49:13;22.77;;;8.68;;
59830;SDS011;45711;50.108;13.712;2023-06-22T01:52:33;35.60;;;9.95;;
59830;SDS011;45711;50.108;13.712;2023-06-22T01:54:37;36.05;;;10.10;;
59830;SDS011;45711;50.108;13.712;2023-06-22T01:57:21;26.98;;;9.10;;
59830;SDS011;45711;50.108;13.712;2023-06-22T02:00:07;25.50;;;9.48;;
59830;SDS011;45711;50.108;13.712;2023-06-22T02:02:47;23.67;;;9.18;;
59830;SDS011;45711;50.108;13.712;2023-06-22T02:05:36;28.98;;;9.38;;
59830;SDS011;45711;50.108;13.712;2023-06-22T02:08:28;38.72;;;10.02;;
59830;SDS011;45711;50.108;13.712;2023-06-22T02:10:59;30.80;;;8.97;;
59830;SDS011;45711;50.108;13.712;2023-06-22T02:13:33;25.10;;;9.45;;
59830;SDS011;45711;50.108;13.712;2023-06-22T02:16:13;21.42;;;9.30;;
59830;SDS011;45711;50.108;13.712;2023-06-22T02:18:54;29.43;;;8.70;;
59830;SDS011;45711;50.108;13.712;2023-06-22T02:21:23;20.40;;;8.07;;
59830;SDS011;45711;50.108;13.712;2023-06-22T02:23:51;18.08;;;9.05;;
59830;SDS011;45711;50.108;13.712;2023-06-22T02:26:26;21.15;;;8.68;;
59830;SDS011;45711;50.108;13.712;2023-06-22T02:29:15;17.38;;;8.25;;
59830;SDS011;45711;50.108;13.712;2023-06-22T02:31:41;16.42;;;7.90;;
59830;SDS011;45711;50.108;13.712;2023-06-22T02:34:11;17.85;;;8.23;;
59830;SDS011;45711;50.108;13.712;2023-06-22T02:36:52;19.73;;;7.70;;
59830;SDS011;45711;50.108;13.712;2023-06-22T02:39:22;25.83;;;7.90;;
59830;SDS011;45711;50.108;13.712;2023-06-22T02:41:59;21.75;;;8.02;;
59830;SDS011;45711;50.108;13.712;2023-06-22T02:44:33;15.65;;;7.25;;
59830;SDS011;45711;50.108;13.712;2023-06-22T02:47:01;18.80;;;6.78;;
59830;SDS011;45711;50.108;13.712;2023-06-22T02:49:33;22.08;;;10.02;;
59830;SDS011;45711;50.108;13.712;2023-06-22T02:52:07;32.15;;;10.55;;
59830;SDS011;45711;50.108;13.712;2023-06-22T02:54:36;38.20;;;10.82;;
59830;SDS011;45711;50.108;13.712;2023-06-22T02:57:07;35.17;;;10.40;;
59830;SDS011;45711;50.108;13.712;2023-06-22T02:59:43;30.98;;;10.57;;
59830;SDS011;45711;50.108;13.712;2023-06-22T03:02:12;42.20;;;10.60;;
59830;SDS011;45711;50.108;13.712;2023-06-22T03:04:40;36.08;;;10.75;;
59830;SDS011;45711;50.108;13.712;2023-06-22T03:07:12;29.75;;;10.52;;
59830;SDS011;45711;50.108;13.712;2023-06-22T03:09:40;29.92;;;9.48;;
59830;SDS011;45711;50.108;13.712;2023-06-22T03:12:12;34.60;;;10.07;;
59830;SDS011;45711;50.108;13.712;2023-06-22T03:14:41;41.70;;;10.75;;
59830;SDS011;45711;50.108;13.712;2023-06-22T03:17:20;33.53;;;9.80;;
59830;SDS011;45711;50.108;13.712;2023-06-22T03:23:19;27.33;;;10.98;;
59830;SDS011;45711;50.108;13.712;2023-06-22T03:25:50;33.55;;;11.10;;
59830;SDS011;45711;50.108;13.712;2023-06-22T03:28:16;33.90;;;12.05;;
59830;SDS011;45711;50.108;13.712;2023-06-22T03:30:45;35.58;;;12.30;;
59830;SDS011;45711;50.108;13.712;2023-06-22T03:33:13;28.45;;;11.90;;
59830;SDS011;45711;50.108;13.712;2023-06-22T03:35:41;38.00;;;11.82;;
59830;SDS011;45711;50.108;13.712;2023-06-22T03:38:07;35.40;;;12.25;;
59830;SDS011;45711;50.108;13.712;2023-06-22T03:40:37;36.20;;;12.60;;
59830;SDS011;45711;50.108;13.712;2023-06-22T03:43:08;36.17;;;13.63;;
59830;SDS011;45711;50.108;13.712;2023-06-22T03:45:36;59.55;;;11.98;;
59830;SDS011;45711;50.108;13.712;2023-06-22T03:48:16;111.20;;;13.75;;
59830;SDS011;45711;50.108;13.712;2023-06-22T03:50:47;46.22;;;13.85;;
59830;SDS011;45711;50.108;13.712;2023-06-22T03:53:17;40.53;;;16.17;;
59830;SDS011;45711;50.108;13.712;2023-06-22T03:56:17;38.17;;;13.23;;
59830;SDS011;45711;50.108;13.712;2023-06-22T03:59:06;30.00;;;10.68;;
59830;SDS011;45711;50.108;13.712;2023-06-22T04:01:35;28.88;;;10.90;;
59830;SDS011;45711;50.108;13.712;2023-06-22T04:04:01;35.55;;;10.43;;
59830;SDS011;45711;50.108;13.712;2023-06-22T04:06:34;38.55;;;10.85;;
59830;SDS011;45711;50.108;13.712;2023-06-22T04:09:03;39.00;;;11.07;;
59830;SDS011;45711;50.108;13.712;2023-06-22T04:11:33;57.13;;;12.48;;
59830;SDS011;45711;50.108;13.712;2023-06-22T04:14:01;38.08;;;13.70;;
59830;SDS011;45711;50.108;13.712;2023-06-22T04:16:26;48.00;;;13.48;;
59830;SDS011;45711;50.108;13.712;2023-06-22T04:19:00;42.30;;;13.00;;
59830;SDS011;45711;50.108;13.712;2023-06-22T04:21:31;36.70;;;13.27;;
59830;SDS011;45711;50.108;13.712;2023-06-22T04:24:03;45.00;;;15.20;;
59830;SDS011;45711;50.108;13.712;2023-06-22T04:26:41;43.80;;;14.27;;
59830;SDS011;45711;50.108;13.712;2023-06-22T04:29:13;41.70;;;14.43;;
59830;SDS011;45711;50.108;13.712;2023-06-22T04:31:39;38.15;;;14.25;;
59830;SDS011;45711;50.108;13.712;2023-06-22T04:34:08;36.22;;;14.60;;
59830;SDS011;45711;50.108;13.712;2023-06-22T04:36:38;41.20;;;15.30;;
59830;SDS011;45711;50.108;13.712;2023-06-22T04:39:09;67.63;;;15.48;;
59830;SDS011;45711;50.108;13.712;2023-06-22T04:41:37;46.25;;;16.98;;
59830;SDS011;45711;50.108;13.712;2023-06-22T04:44:14;61.63;;;15.82;;
59830;SDS011;45711;50.108;13.712;2023-06-22T04:46:52;49.35;;;19.25;;
59830;SDS011;45711;50.108;13.712;2023-06-22T04:49:34;52.75;;;18.80;;
59830;SDS011;45711;50.108;13.712;2023-06-22T04:52:04;51.90;;;19.35;;
59830;SDS011;45711;50.108;13.712;2023-06-22T04:54:34;60.85;;;21.38;;
59830;SDS011;45711;50.108;13.712;2023-06-22T04:57:05;60.00;;;24.65;;
59830;SDS011;45711;50.108;13.712;2023-06-22T04:59:40;56.22;;;25.25;;
59830;SDS011;45711;50.108;13.712;2023-06-22T05:02:07;86.28;;;29.10;;
59830;SDS011;45711;50.108;13.712;2023-06-22T05:04:47;50.95;;;24.80;;
59830;SDS011;45711;50.108;13.712;2023-06-22T05:07:16;47.08;;;24.77;;
59830;SDS011;45711;50.108;13.712;2023-06-22T05:09:42;44.70;;;24.55;;
59830;SDS011;45711;50.108;13.712;2023-06-22T05:12:13;40.75;;;20.90;;
59830;SDS011;45711;50.108;13.712;2023-06-22T05:14:44;37.50;;;16.40;;
59830;SDS011;45711;50.108;13.712;2023-06-22T05:17:09;25.50;;;13.93;;
59830;SDS011;45711;50.108;13.712;2023-06-22T05:19:38;26.58;;;13.40;;
59830;SDS011;45711;50.108;13.712;2023-06-22T05:22:04;27.83;;;13.07;;
59830;SDS011;45711;50.108;13.712;2023-06-22T05:24:31;24.38;;;12.95;;
59830;SDS011;45711;50.108;13.712;2023-06-22T05:26:59;31.05;;;14.45;;
59830;SDS011;45711;50.108;13.712;2023-06-22T05:29:31;22.25;;;13.10;;
59830;SDS011;45711;50.108;13.712;2023-06-22T05:32:02;27.20;;;13.23;;
59830;SDS011;45711;50.108;13.712;2023-06-22T05:34:30;28.00;;;13.82;;
59830;SDS011;45711;50.108;13.712;2023-06-22T05:36:56;22.98;;;12.65;;
59830;SDS011;45711;50.108;13.712;2023-06-22T05:39:31;26.98;;;13.25;;
59830;SDS011;45711;50.108;13.712;2023-06-22T05:42:05;22.58;;;12.38;;
59830;SDS011;45711;50.108;13.712;2023-06-22T05:44:36;22.38;;;12.57;;
59830;SDS011;45711;50.108;13.712;2023-06-22T05:47:06;23.27;;;11.57;;
59830;SDS011;45711;50.108;13.712;2023-06-22T05:49:35;19.05;;;11.73;;
59830;SDS011;45711;50.108;13.712;2023-06-22T05:52:04;20.13;;;11.70;;
59830;SDS011;45711;50.108;13.712;2023-06-22T05:57:06;21.25;;;11.88;;
59830;SDS011;45711;50.108;13.712;2023-06-22T05:59:53;21.13;;;11.90;;
59830;SDS011;45711;50.108;13.712;2023-06-22T06:02:34;25.90;;;11.98;;
59830;SDS011;45711;50.108;13.712;2023-06-22T06:05:07;15.23;;;11.07;;
59830;SDS011;45711;50.108;13.712;2023-06-22T06:07:35;21.33;;;11.15;;
59830;SDS011;45711;50.108;13.712;2023-06-22T06:10:11;24.02;;;11.18;;
59830;SDS011;45711;50.108;13.712;2023-06-22T06:12:38;17.00;;;10.20;;
59830;SDS011;45711;50.108;13.712;2023-06-22T06:15:10;19.35;;;11.98;;
59830;SDS011;45711;50.108;13.712;2023-06-22T06:17:38;21.67;;;11.20;;
59830;SDS011;45711;50.108;13.712;2023-06-22T06:20:15;19.83;;;11.57;;
59830;SDS011;45711;50.108;13.712;2023-06-22T06:22:44;15.60;;;11.77;;
59830;SDS011;45711;50.108;13.712;2023-06-22T06:25:10;22.77;;;11.48;;
59830;SDS011;45711;50.108;13.712;2023-06-22T06:27:40;26.30;;;10.80;;
59830;SDS011;45711;50.108;13.712;2023-06-22T06:30:18;16.90;;;10.90;;
59830;SDS011;45711;50.108;13.712;2023-06-22T06:33:15;20.80;;;10.25;;
59830;SDS011;45711;50.108;13.712;2023-06-22T06:35:49;17.85;;;10.82;;
59830;SDS011;45711;50.108;13.712;2023-06-22T06:41:40;18.27;;;10.27;;
59830;SDS011;45711;50.108;13.712;2023-06-22T06:44:26;22.98;;;10.98;;
59830;SDS011;45711;50.108;13.712;2023-06-22T06:46:56;18.33;;;10.45;;
59830;SDS011;45711;50.108;13.712;2023-06-22T06:55:50;18.00;;;10.15;;
59830;SDS011;45711;50.108;13.712;2023-06-22T06:58:29;15.45;;;10.60;;
59830;SDS011;45711;50.108;13.712;2023-06-22T07:04:00;13.38;;;9.18;;
59830;SDS011;45711;50.108;13.712;2023-06-22T07:06:29;16.05;;;10.23;;
59830;SDS011;45711;50.108;13.712;2023-06-22T07:10:10;14.88;;;9.60;;
59830;SDS011;45711;50.108;13.712;2023-06-22T08:04:39;10.85;;;7.50;;
59830;SDS011;45711;50.108;13.712;2023-06-22T08:14:35;12.02;;;7.00;;
59830;SDS011;45711;50.108;13.712;2023-06-22T08:39:52;13.55;;;6.55;;
59830;SDS011;45711;50.108;13.712;2023-06-22T09:00:08;11.82;;;6.22;;
59830;SDS011;45711;50.108;13.712;2023-06-22T09:02:54;10.70;;;6.75;;
59830;SDS011;45711;50.108;13.712;2023-06-22T09:24:54;7.72;;;5.97;;
59830;SDS011;45711;50.108;13.712;2023-06-22T10:02:12;7.70;;;6.30;;
59830;SDS011;45711;50.108;13.712;2023-06-22T10:05:01;10.45;;;5.90;;
59830;SDS011;45711;50.108;13.712;2023-06-22T10:27:22;8.88;;;5.90;;
59830;SDS011;45711;50.108;13.712;2023-06-22T10:29:51;13.40;;;6.43;;
59830;SDS011;45711;50.108;13.712;2023-06-22T10:32:27;9.27;;;6.55;;
59830;SDS011;45711;50.108;13.712;2023-06-22T10:34:53;11.25;;;6.50;;
59830;SDS011;45711;50.108;13.712;2023-06-22T10:37:19;11.10;;;6.45;;
59830;SDS011;45711;50.108;13.712;2023-06-22T10:39:45;12.40;;;6.43;;
59830;SDS011;45711;50.108;13.712;2023-06-22T10:42:13;9.20;;;6.07;;
59830;SDS011;45711;50.108;13.712;2023-06-22T10:44:43;8.25;;;6.43;;
59830;SDS011;45711;50.108;13.712;2023-06-22T10:47:09;10.55;;;6.57;;
59830;SDS011;45711;50.108;13.712;2023-06-22T10:49:38;7.35;;;6.05;;
59830;SDS011;45711;50.108;13.712;2023-06-22T10:52:06;11.23;;;6.20;;
59830;SDS011;45711;50.108;13.712;2023-06-22T10:54:35;8.60;;;5.80;;
59830;SDS011;45711;50.108;13.712;2023-06-22T10:57:06;11.38;;;6.38;;
59830;SDS011;45711;50.108;13.712;2023-06-22T10:59:34;10.50;;;6.53;;
59830;SDS011;45711;50.108;13.712;2023-06-22T11:02:05;8.23;;;5.85;;
59830;SDS011;45711;50.108;13.712;2023-06-22T11:04:40;9.02;;;5.53;;
59830;SDS011;45711;50.108;13.712;2023-06-22T11:07:05;13.10;;;5.93;;
59830;SDS011;45711;50.108;13.712;2023-06-22T11:09:33;8.45;;;5.88;;
59830;SDS011;45711;50.108;13.712;2023-06-22T11:11:59;7.13;;;5.75;;
59830;SDS011;45711;50.108;13.712;2023-06-22T11:14:27;8.02;;;5.68;;
59830;SDS011;45711;50.108;13.712;2023-06-22T11:16:53;13.27;;;7.28;;
59830;SDS011;45711;50.108;13.712;2023-06-22T11:19:23;13.63;;;6.63;;
59830;SDS011;45711;50.108;13.712;2023-06-22T11:21:51;7.13;;;5.15;;
59830;SDS011;45711;50.108;13.712;2023-06-22T11:24:17;10.27;;;6.18;;
59830;SDS011;45711;50.108;13.712;2023-06-22T11:26:45;10.23;;;6.20;;
59830;SDS011;45711;50.108;13.712;2023-06-22T11:29:10;9.95;;;5.63;;
59830;SDS011;45711;50.108;13.712;2023-06-22T11:31:36;10.80;;;5.65;;
59830;SDS011;45711;50.108;13.712;2023-06-22T11:34:03;9.38;;;5.32;;
59830;SDS011;45711;50.108;13.712;2023-06-22T11:36:32;7.65;;;5.30;;
59830;SDS011;45711;50.108;13.712;2023-06-22T11:39:00;11.63;;;5.88;;
59830;SDS011;45711;50.108;13.712;2023-06-22T11:41:28;10.73;;;5.95;;
59830;SDS011;45711;50.108;13.712;2023-06-22T11:44:04;24.95;;;5.75;;
59830;SDS011;45711;50.108;13.712;2023-06-22T11:47:05;12.40;;;5.93;;
59830;SDS011;45711;50.108;13.712;2023-06-22T11:49:24;11.18;;;5.60;;
59830;SDS011;45711;50.108;13.712;2023-06-22T11:51:58;9.25;;;6.35;;
59830;SDS011;45711;50.108;13.712;2023-06-22T11:54:33;13.85;;;5.85;;
59830;SDS011;45711;50.108;13.712;2023-06-22T11:57:11;9.23;;;5.50;;
59830;SDS011;45711;50.108;13.712;2023-06-22T11:59:38;14.18;;;5.88;;
59830;SDS011;45711;50.108;13.712;2023-06-22T12:02:06;9.32;;;5.40;;
59830;SDS011;45711;50.108;13.712;2023-06-22T12:04:36;27.13;;;6.18;;
59830;SDS011;45711;50.108;13.712;2023-06-22T12:10:38;9.35;;;5.47;;
59830;SDS011;45711;50.108;13.712;2023-06-22T12:13:21;9.98;;;4.97;;
59830;SDS011;45711;50.108;13.712;2023-06-22T12:16:08;9.82;;;5.90;;
59830;SDS011;45711;50.108;13.712;2023-06-22T12:18:37;8.57;;;4.97;;
59830;SDS011;45711;50.108;13.712;2023-06-22T13:36:14;7.88;;;5.45;;
59830;SDS011;45711;50.108;13.712;2023-06-22T13:39:12;10.60;;;4.90;;
59830;SDS011;45711;50.108;13.712;2023-06-22T13:44:26;15.93;;;4.93;;
59830;SDS011;45711;50.108;13.712;2023-06-22T13:47:26;11.88;;;4.68;;
59830;SDS011;45711;50.108;13.712;2023-06-22T13:49:54;8.15;;;4.47;;
59830;SDS011;45711;50.108;13.712;2023-06-22T13:52:27;11.57;;;4.85;;
59830;SDS011;45711;50.108;13.712;2023-06-22T13:56:03;11.07;;;4.60;;
59830;SDS011;45711;50.108;13.712;2023-06-22T13:58:00;15.98;;;5.00;;
59830;SDS011;45711;50.108;13.712;2023-06-22T14:01:13;8.57;;;5.60;;
59830;SDS011;45711;50.108;13.712;2023-06-22T14:03:51;12.93;;;5.25;;
59830;SDS011;45711;50.108;13.712;2023-06-22T14:06:46;11.93;;;5.13;;
59830;SDS011;45711;50.108;13.712;2023-06-22T14:13:03;7.85;;;5.70;;
59830;SDS011;45711;50.108;13.712;2023-06-22T14:15:41;11.13;;;5.45;;
59830;SDS011;45711;50.108;13.712;2023-06-22T14:18:24;8.82;;;5.03;;
59830;SDS011;45711;50.108;13.712;2023-06-22T14:20:55;9.17;;;5.23;;
59830;SDS011;45711;50.108;13.712;2023-06-22T14:26:11;9.55;;;5.63;;
59830;SDS011;45711;50.108;13.712;2023-06-22T14:28:50;12.35;;;5.47;;
59830;SDS011;45711;50.108;13.712;2023-06-22T14:31:22;10.60;;;5.15;;
59830;SDS011;45711;50.108;13.712;2023-06-22T14:36:54;10.70;;;5.15;;
59830;SDS011;45711;50.108;13.712;2023-06-22T14:46:33;14.10;;;5.40;;
59830;SDS011;45711;50.108;13.712;2023-06-22T15:59:16;14.27;;;5.30;;
59830;SDS011;45711;50.108;13.712;2023-06-22T16:01:42;22.30;;;6.40;;
59830;SDS011;45711;50.108;13.712;2023-06-22T16:04:08;9.48;;;5.38;;
59830;SDS011;45711;50.108;13.712;2023-06-22T16:06:36;7.95;;;5.25;;
59830;SDS011;45711;50.108;13.712;2023-06-22T16:09:02;11.05;;;5.55;;
59830;SDS011;45711;50.108;13.712;2023-06-22T16:41:47;12.35;;;4.90;;
59830;SDS011;45711;50.108;13.712;2023-06-22T16:44:14;12.93;;;5.05;;
59830;SDS011;45711;50.108;13.712;2023-06-22T16:46:42;12.40;;;4.70;;
59830;SDS011;45711;50.108;13.712;2023-06-22T16:49:09;11.93;;;5.22;;
59830;SDS011;45711;50.108;13.712;2023-06-22T16:51:34;9.85;;;5.35;;
59830;SDS011;45711;50.108;13.712;2023-06-22T16:54:03;13.98;;;5.20;;
59830;SDS011;45711;50.108;13.712;2023-06-22T16:56:33;11.95;;;4.50;;
59830;SDS011;45711;50.108;13.712;2023-06-22T16:59:03;9.52;;;5.03;;
59830;SDS011;45711;50.108;13.712;2023-06-22T17:01:30;10.07;;;5.05;;
59830;SDS011;45711;50.108;13.712;2023-06-22T17:04:03;12.63;;;5.30;;
59830;SDS011;45711;50.108;13.712;2023-06-22T17:06:31;19.52;;;4.70;;
59830;SDS011;45711;50.108;13.712;2023-06-22T17:08:59;8.80;;;5.32;;
59830;SDS011;45711;50.108;13.712;2023-06-22T17:11:29;9.90;;;5.28;;
59830;SDS011;45711;50.108;13.712;2023-06-22T17:13:57;12.95;;;5.40;;
59830;SDS011;45711;50.108;13.712;2023-06-22T17:16:34;8.27;;;5.25;;
59830;SDS011;45711;50.108;13.712;2023-06-22T17:19:01;15.95;;;5.15;;
59830;SDS011;45711;50.108;13.712;2023-06-22T17:21:32;10.57;;;4.97;;
59830;SDS011;45711;50.108;13.712;2023-06-22T17:23:58;17.13;;;5.20;;
59830;SDS011;45711;50.108;13.712;2023-06-22T17:26:25;9.45;;;4.78;;
59830;SDS011;45711;50.108;13.712;2023-06-22T17:28:51;13.10;;;5.10;;
59830;SDS011;45711;50.108;13.712;2023-06-22T17:31:38;10.35;;;5.40;;
59830;SDS011;45711;50.108;13.712;2023-06-22T17:34:29;11.02;;;5.50;;
59830;SDS011;45711;50.108;13.712;2023-06-22T17:37:00;10.52;;;5.50;;
59830;SDS011;45711;50.108;13.712;2023-06-22T17:39:39;11.48;;;5.03;;
59830;SDS011;45711;50.108;13.712;2023-06-22T17:44:50;10.27;;;5.10;;
59830;SDS011;45711;50.108;13.712;2023-06-22T17:47:31;15.55;;;5.15;;
59830;SDS011;45711;50.108;13.712;2023-06-22T17:50:05;11.65;;;5.50;;
59830;SDS011;45711;50.108;13.712;2023-06-22T17:54:57;10.23;;;5.20;;
59830;SDS011;45711;50.108;13.712;2023-06-22T17:57:27;12.13;;;5.28;;
59830;SDS011;45711;50.108;13.712;2023-06-22T18:00:02;13.80;;;5.63;;
59830;SDS011;45711;50.108;13.712;2023-06-22T18:02:40;9.52;;;5.00;;
59830;SDS011;45711;50.108;13.712;2023-06-22T18:05:07;9.75;;;5.25;;
59830;SDS011;45711;50.108;13.712;2023-06-22T18:07:33;13.88;;;5.78;;
59830;SDS011;45711;50.108;13.712;2023-06-22T18:10:07;9.40;;;5.45;;
59830;SDS011;45711;50.108;13.712;2023-06-22T18:12:38;14.07;;;6.82;;
59830;SDS011;45711;50.108;13.712;2023-06-22T18:15:04;8.27;;;5.40;;
59830;SDS011;45711;50.108;13.712;2023-06-22T18:17:31;10.43;;;5.03;;
59830;SDS011;45711;50.108;13.712;2023-06-22T18:20:02;10.25;;;5.38;;
59830;SDS011;45711;50.108;13.712;2023-06-22T18:22:29;9.45;;;5.32;;
59830;SDS011;45711;50.108;13.712;2023-06-22T18:24:56;10.98;;;5.57;;
59830;SDS011;45711;50.108;13.712;2023-06-22T18:27:24;12.98;;;5.18;;
59830;SDS011;45711;50.108;13.712;2023-06-22T18:30:03;14.30;;;5.40;;
59830;SDS011;45711;50.108;13.712;2023-06-22T18:32:41;14.52;;;5.43;;
59830;SDS011;45711;50.108;13.712;2023-06-22T18:35:15;9.85;;;5.30;;
59830;SDS011;45711;50.108;13.712;2023-06-22T18:38:02;12.05;;;5.47;;
59830;SDS011;45711;50.108;13.712;2023-06-22T18:40:31;10.90;;;5.25;;
59830;SDS011;45711;50.108;13.712;2023-06-22T18:42:58;11.88;;;5.70;;
59830;SDS011;45711;50.108;13.712;2023-06-22T18:45:28;16.85;;;5.50;;
59830;SDS011;45711;50.108;13.712;2023-06-22T18:47:55;12.75;;;5.35;;
59830;SDS011;45711;50.108;13.712;2023-06-22T18:50:46;12.50;;;5.25;;
59830;SDS011;45711;50.108;13.712;2023-06-22T18:59:13;8.68;;;5.55;;
59830;SDS011;45711;50.108;13.712;2023-06-22T19:04:49;9.95;;;5.05;;
59830;SDS011;45711;50.108;13.712;2023-06-22T19:05:53;10.45;;;5.45;;
59830;SDS011;45711;50.108;13.712;2023-06-22T19:12:20;11.65;;;5.65;;
59830;SDS011;45711;50.108;13.712;2023-06-22T19:50:42;15.35;;;4.95;;
59830;SDS011;45711;50.108;13.712;2023-06-22T19:53:22;14.50;;;4.70;;
59830;SDS011;45711;50.108;13.712;2023-06-22T19:56:36;9.70;;;5.57;;
59830;SDS011;45711;50.108;13.712;2023-06-22T19:59:16;13.93;;;5.22;;
59830;SDS011;45711;50.108;13.712;2023-06-22T20:08:49;10.77;;;5.07;;
59830;SDS011;45711;50.108;13.712;2023-06-22T20:22:40;10.27;;;5.82;;
59830;SDS011;45711;50.108;13.712;2023-06-22T20:27:42;11.00;;;4.70;;
59830;SDS011;45711;50.108;13.712;2023-06-22T20:30:11;10.57;;;5.85;;
59830;SDS011;45711;50.108;13.712;2023-06-22T20:32:45;11.10;;;5.53;;
59830;SDS011;45711;50.108;13.712;2023-06-22T20:35:14;8.45;;;5.85;;
59830;SDS011;45711;50.108;13.712;2023-06-22T20:37:40;10.15;;;5.07;;
59830;SDS011;45711;50.108;13.712;2023-06-22T20:40:06;9.80;;;4.82;;
59830;SDS011;45711;50.108;13.712;2023-06-22T20:42:39;12.80;;;4.90;;
59830;SDS011;45711;50.108;13.712;2023-06-22T20:45:27;8.63;;;5.70;;
59830;SDS011;45711;50.108;13.712;2023-06-22T20:48:30;7.65;;;5.60;;
59830;SDS011;45711;50.108;13.712;2023-06-22T20:54:43;10.82;;;5.88;;
59830;SDS011;45711;50.108;13.712;2023-06-22T21:04:17;11.30;;;6.10;;
59830;SDS011;45711;50.108;13.712;2023-06-22T21:09:16;8.70;;;5.18;;
59830;SDS011;45711;50.108;13.712;2023-06-22T21:10:38;17.08;;;5.63;;
59830;SDS011;45711;50.108;13.712;2023-06-22T21:13:12;10.77;;;5.13;;
59830;SDS011;45711;50.108;13.712;2023-06-22T21:16:02;15.25;;;5.60;;
59830;SDS011;45711;50.108;13.712;2023-06-22T21:38:18;10.60;;;4.38;;
59830;SDS011;45711;50.108;13.712;2023-06-22T21:41:36;11.97;;;5.33;;
59830;SDS011;45711;50.108;13.712;2023-06-22T21:44:33;13.07;;;5.38;;
59830;SDS011;45711;50.108;13.712;2023-06-22T21:47:10;23.30;;;5.75;;
59830;SDS011;45711;50.108;13.712;2023-06-22T21:50:02;45.88;;;6.88;;
59830;SDS011;45711;50.108;13.712;2023-06-22T21:59:16;25.02;;;4.47;;
59830;SDS011;45711;50.108;13.712;2023-06-22T22:13:34;20.33;;;3.90;;
59830;SDS011;45711;50.108;13.712;2023-06-22T22:22:19;13.07;;;3.53;;
59830;SDS011;45711;50.108;13.712;2023-06-22T22:38:31;15.02;;;3.53;;
59830;SDS011;45711;50.108;13.712;2023-06-22T22:41:41;13.13;;;2.60;;
59830;SDS011;45711;50.108;13.712;2023-06-22T22:48:31;12.80;;;2.92;;
59830;SDS011;45711;50.108;13.712;2023-06-22T22:51:38;9.38;;;2.35;;
59830;SDS011;45711;50.108;13.712;2023-06-22T22:57:00;10.13;;;2.85;;
59830;SDS011;45711;50.108;13.712;2023-06-22T23:00:03;15.95;;;3.08;;
59830;SDS011;45711;50.108;13.712;2023-06-22T23:03:26;11.60;;;3.65;;
59830;SDS011;45711;50.108;13.712;2023-06-22T23:06:08;14.13;;;2.83;;
59830;SDS011;45711;50.108;13.712;2023-06-22T23:08:48;17.85;;;3.92;;
59830;SDS011;45711;50.108;13.712;2023-06-22T23:11:30;13.93;;;3.55;;
59830;SDS011;45711;50.108;13.712;2023-06-22T23:14:21;8.63;;;2.88;;
59830;SDS011;45711;50.108;13.712;2023-06-22T23:16:57;11.30;;;3.45;;
59830;SDS011;45711;50.108;13.712;2023-06-22T23:19:28;11.52;;;3.78;;
59830;SDS011;45711;50.108;13.712;2023-06-22T23:22:24;19.98;;;3.53;;
59830;SDS011;45711;50.108;13.712;2023-06-22T23:24:50;9.80;;;3.10;;
59830;SDS011;45711;50.108;13.712;2023-06-22T23:31:18;15.50;;;3.60;;
59830;SDS011;45711;50.108;13.712;2023-06-22T23:37:22;19.90;;;4.10;;
59830;SDS011;45711;50.108;13.712;2023-06-22T23:40:28;13.20;;;3.72;;
59830;SDS011;45711;50.108;13.712;2023-06-22T23:43:09;26.40;;;4.00;;
59830;SDS011;45711;50.108;13.712;2023-06-22T23:46:02;12.48;;;4.13;;
59830;SDS011;45711;50.108;13.712;2023-06-22T23:48:58;19.77;;;3.63;;
59830;SDS011;45711;50.108;13.712;2023-06-22T23:51:59;14.35;;;3.30;;
59830;SDS011;45711;50.108;13.712;2023-06-22T23:55:25;15.88;;;3.95;;
